createdAt,value
2022-11-01T00:02:02.372Z,24.10
2022-11-01T00:04:31.694Z,23.55
2022-11-01T00:06:59.533Z,23.25
2022-11-01T00:09:27.477Z,23.55
2022-11-01T00:11:55.366Z,23.50
2022-11-01T00:14:23.533Z,22.73
2022-11-01T00:16:51.604Z,22.65
2022-11-01T00:19:19.900Z,22.00
2022-11-01T00:21:49.148Z,22.00
2022-11-01T00:24:17.063Z,21.33
2022-11-01T00:26:45.183Z,20.88
2022-11-01T00:29:13.431Z,20.08
2022-11-01T00:31:41.337Z,19.58
2022-11-01T00:34:09.512Z,18.88
2022-11-01T00:36:37.702Z,18.90
2022-11-01T00:39:07.153Z,19.33
2022-11-01T00:41:35.370Z,18.80
2022-11-01T00:44:03.249Z,18.13
2022-11-01T00:46:31.567Z,18.60
2022-11-01T00:48:59.496Z,18.13
2022-11-01T00:51:28.836Z,18.02
2022-11-01T00:53:56.747Z,17.70
2022-11-01T00:56:25.973Z,17.75
2022-11-01T00:58:53.818Z,17.33
2022-11-01T01:01:21.873Z,17.00
2022-11-01T01:03:49.811Z,17.17
2022-11-01T01:06:17.701Z,17.77
2022-11-01T01:08:45.591Z,16.20
2022-11-01T01:11:13.454Z,17.58
2022-11-01T01:13:42.901Z,16.25
2022-11-01T01:16:12.565Z,16.10
2022-11-01T01:18:40.795Z,15.13
2022-11-01T01:21:08.843Z,16.02
2022-11-01T01:23:37.280Z,15.43
2022-11-01T01:26:07.728Z,15.95
2022-11-01T01:28:40.150Z,15.15
2022-11-01T01:31:14.225Z,15.38
2022-11-01T01:33:42.353Z,15.35
2022-11-01T01:36:10.464Z,14.77
2022-11-01T01:38:38.391Z,15.20
2022-11-01T01:41:24.035Z,14.18
2022-11-01T01:43:51.939Z,14.90
2022-11-01T01:46:21.191Z,14.93
2022-11-01T01:48:53.502Z,14.25
2022-11-01T01:51:25.886Z,14.65
2022-11-01T01:53:55.964Z,14.25
2022-11-01T01:56:29.055Z,14.48
2022-11-01T01:59:02.250Z,14.25
2022-11-01T02:01:32.179Z,14.40
2022-11-01T02:04:00.358Z,13.00
2022-11-01T02:06:28.708Z,13.35
2022-11-01T02:08:59.435Z,13.32
2022-11-01T02:11:27.282Z,12.45
2022-11-01T02:13:55.761Z,13.20
2022-11-01T02:16:40.886Z,12.45
2022-11-01T02:19:34.916Z,13.13
2022-11-01T02:22:06.533Z,12.15
2022-11-01T02:24:50.885Z,11.70
2022-11-01T02:27:25.849Z,12.98
2022-11-01T02:32:54.343Z,11.25
2022-11-01T02:35:30.330Z,11.15
2022-11-01T02:38:04.016Z,11.15
2022-11-01T02:40:41.524Z,11.80
2022-11-01T02:43:15.707Z,11.23
2022-11-01T02:45:45.640Z,11.70
2022-11-01T02:48:15.092Z,12.13
2022-11-01T02:50:46.488Z,10.70
2022-11-01T02:53:14.576Z,11.65
2022-11-01T02:55:42.439Z,11.20
2022-11-01T02:58:16.829Z,11.40
2022-11-01T03:00:45.984Z,11.43
2022-11-01T03:03:19.395Z,10.70
2022-11-01T03:05:58.492Z,11.25
2022-11-01T03:08:32.855Z,9.80
2022-11-01T03:11:07.484Z,10.05
2022-11-01T03:13:56.386Z,10.10
2022-11-01T03:16:31.623Z,9.93
2022-11-01T03:19:26.651Z,9.98
2022-11-01T03:22:03.431Z,9.32
2022-11-01T03:24:34.615Z,10.63
2022-11-01T03:27:06.191Z,9.32
2022-11-01T03:29:36.119Z,9.48
2022-11-01T03:32:05.307Z,10.45
2022-11-01T03:34:37.676Z,9.55
2022-11-01T03:37:10.135Z,9.50
2022-11-01T03:39:42.500Z,8.88
2022-11-01T03:42:15.625Z,9.43
2022-11-01T03:44:47.754Z,9.10
2022-11-01T03:47:16.310Z,8.23
2022-11-01T03:49:45.615Z,9.00
2022-11-01T03:52:13.515Z,8.63
2022-11-01T03:54:41.374Z,8.65
2022-11-01T03:57:09.331Z,8.65
2022-11-01T03:59:37.408Z,8.65
2022-11-01T04:02:05.456Z,8.68
2022-11-01T04:04:33.456Z,8.95
2022-11-01T04:07:02.655Z,8.27
2022-11-01T04:09:30.498Z,7.90
2022-11-01T04:11:58.364Z,7.95
2022-11-01T04:14:43.702Z,8.27
2022-11-01T04:20:14.254Z,7.82
2022-11-01T04:25:11.187Z,7.75
2022-11-01T04:27:39.707Z,8.13
2022-11-01T04:30:08.482Z,7.18
2022-11-01T04:32:36.405Z,7.22
2022-11-01T04:35:04.409Z,7.40
2022-11-01T04:37:32.310Z,8.07
2022-11-01T04:40:01.522Z,6.97
2022-11-01T04:42:29.374Z,6.72
2022-11-01T04:44:57.226Z,6.20
2022-11-01T04:47:25.117Z,7.22
2022-11-01T04:49:52.963Z,6.72
2022-11-01T04:52:21.083Z,7.60
2022-11-01T04:54:48.934Z,6.55
2022-11-01T04:57:24.274Z,6.57
2022-11-01T04:59:53.098Z,6.20
2022-11-01T05:02:22.450Z,6.50
2022-11-01T05:04:50.640Z,6.22
2022-11-01T05:07:18.522Z,6.50
2022-11-01T05:09:46.430Z,6.57
2022-11-01T05:12:14.395Z,5.63
2022-11-01T05:14:43.694Z,6.13
2022-11-01T05:17:11.669Z,6.22
2022-11-01T05:19:39.584Z,5.57
2022-11-01T05:22:07.465Z,5.55
2022-11-01T05:24:35.439Z,5.60
2022-11-01T05:27:03.366Z,5.43
2022-11-01T05:29:33.149Z,5.45
2022-11-01T05:32:03.474Z,5.20
2022-11-01T05:34:31.450Z,4.60
2022-11-01T05:36:59.345Z,4.63
2022-11-01T05:39:27.237Z,5.63
2022-11-01T05:41:58.268Z,5.00
2022-11-01T05:44:29.573Z,4.93
2022-11-01T05:46:57.439Z,4.45
2022-11-01T05:49:26.658Z,4.50
2022-11-01T05:51:54.626Z,4.38
2022-11-01T05:54:22.566Z,4.10
2022-11-01T05:56:50.692Z,4.30
2022-11-01T05:59:18.588Z,4.15
2022-11-01T06:01:46.574Z,3.92
2022-11-01T06:04:14.582Z,4.20
2022-11-01T06:06:43.818Z,3.85
2022-11-01T06:09:11.865Z,4.05
2022-11-01T06:11:41.799Z,3.88
2022-11-01T06:14:12.576Z,3.42
2022-11-01T06:16:40.501Z,2.88
2022-11-01T06:19:09.759Z,3.13
2022-11-01T06:21:37.711Z,3.65
2022-11-01T06:24:07.363Z,2.95
2022-11-01T06:26:35.288Z,3.15
2022-11-01T06:29:04.660Z,2.63
2022-11-01T06:31:32.859Z,2.97
2022-11-01T06:34:00.784Z,2.65
2022-11-01T06:36:28.727Z,2.10
2022-11-01T06:38:56.612Z,2.20
2022-11-01T06:41:25.859Z,2.80
2022-11-01T06:43:53.757Z,2.35
2022-11-01T06:46:21.660Z,2.45
2022-11-01T06:48:49.855Z,2.50
2022-11-01T06:51:17.878Z,2.95
2022-11-01T06:53:45.774Z,2.55
2022-11-01T06:56:13.697Z,2.15
2022-11-01T06:58:42.906Z,2.20
2022-11-01T07:01:10.907Z,2.00
2022-11-01T07:03:38.894Z,2.38
2022-11-01T07:06:07.112Z,2.47
2022-11-01T07:08:35.027Z,2.65
2022-11-01T07:11:02.914Z,2.20
2022-11-01T07:13:33.797Z,2.00
2022-11-01T07:16:04.178Z,2.60
2022-11-01T07:18:32.254Z,2.30
2022-11-01T07:21:03.030Z,1.77
2022-11-01T07:23:31.636Z,2.80
2022-11-01T07:25:59.538Z,2.08
2022-11-01T07:28:27.738Z,2.30
2022-11-01T07:30:56.636Z,2.10
2022-11-01T07:33:26.084Z,2.50
2022-11-01T07:35:54.043Z,2.28
2022-11-01T07:38:22.007Z,2.13
2022-11-01T07:40:52.299Z,2.22
2022-11-01T07:43:20.378Z,2.15
2022-11-01T07:45:49.004Z,1.92
2022-11-01T07:48:18.189Z,2.05
2022-11-01T07:50:47.759Z,1.83
2022-11-01T07:53:17.879Z,1.77
2022-11-01T07:55:46.849Z,1.85
2022-11-01T07:58:16.647Z,1.70
2022-11-01T08:00:45.574Z,1.75
2022-11-01T08:03:15.640Z,1.85
2022-11-01T08:05:44.811Z,1.88
2022-11-01T08:08:15.225Z,2.40
2022-11-01T08:10:43.466Z,1.80
2022-11-01T08:13:16.505Z,1.83
2022-11-01T08:15:44.781Z,1.70
2022-11-01T08:18:12.717Z,1.88
2022-11-01T08:20:41.525Z,1.98
2022-11-01T08:23:09.723Z,1.63
2022-11-01T08:25:39.018Z,1.95
2022-11-01T08:28:08.996Z,1.83
2022-11-01T08:30:38.346Z,1.88
2022-11-01T08:33:06.907Z,1.55
2022-11-01T08:35:35.496Z,1.70
2022-11-01T08:38:03.968Z,1.45
2022-11-01T08:40:33.134Z,2.05
2022-11-01T08:43:03.205Z,1.65
2022-11-01T08:45:31.340Z,1.80
2022-11-01T08:48:00.112Z,1.40
2022-11-01T08:50:28.933Z,1.25
2022-11-01T08:52:57.046Z,1.65
2022-11-01T08:55:25.049Z,1.92
2022-11-01T08:57:53.039Z,1.58
2022-11-01T09:00:22.441Z,1.38
2022-11-01T09:02:50.415Z,1.55
2022-11-01T09:05:18.445Z,1.30
2022-11-01T09:07:46.385Z,1.60
2022-11-01T09:10:14.358Z,1.30
2022-11-01T09:12:42.262Z,1.20
2022-11-01T09:15:11.190Z,1.50
2022-11-01T09:17:40.453Z,1.50
2022-11-01T09:20:09.584Z,1.60
2022-11-01T09:22:38.389Z,1.63
2022-11-01T09:25:07.266Z,1.67
2022-11-01T09:27:35.193Z,1.90
2022-11-01T09:30:03.522Z,1.20
2022-11-01T09:32:31.455Z,1.70
2022-11-01T09:35:00.764Z,1.77
2022-11-01T09:37:28.762Z,1.50
2022-11-01T09:39:56.627Z,1.10
2022-11-01T09:42:29.720Z,1.40
2022-11-01T09:45:01.496Z,1.17
2022-11-01T09:47:31.286Z,1.63
2022-11-01T09:50:06.282Z,1.65
2022-11-01T09:55:02.181Z,1.40
2022-11-01T09:57:37.095Z,1.40
2022-11-01T10:00:13.938Z,2.28
2022-11-01T10:03:20.093Z,1.17
2022-11-01T10:08:37.709Z,1.58
2022-11-01T13:24:52.375Z,1.92
2022-11-01T13:27:28.975Z,1.38
2022-11-01T13:30:03.142Z,1.67
2022-11-01T13:32:36.952Z,1.53
2022-11-01T13:35:32.693Z,1.75
2022-11-01T13:40:38.535Z,1.75
2022-11-01T13:43:13.813Z,2.50
2022-11-01T13:46:13.356Z,2.40
2022-11-01T13:49:01.959Z,3.25
2022-11-01T13:51:39.681Z,2.63
2022-11-01T13:54:19.015Z,2.25
2022-11-01T13:56:58.620Z,2.70
2022-11-01T13:59:34.332Z,2.78
2022-11-01T14:02:36.028Z,3.00
2022-11-01T14:05:08.420Z,3.28
2022-11-01T14:07:37.795Z,3.33
2022-11-01T14:10:11.967Z,2.92
2022-11-01T14:12:48.151Z,2.77
2022-11-01T14:15:21.369Z,3.50
2022-11-01T14:18:04.427Z,2.45
2022-11-01T14:20:52.806Z,3.55
2022-11-01T14:24:06.376Z,3.28
2022-11-01T16:30:56.768Z,2.53
2022-11-01T16:33:28.798Z,2.88
2022-11-01T16:35:58.247Z,2.40
2022-11-01T16:38:43.054Z,3.33
2022-11-01T16:41:20.262Z,2.22
2022-11-01T16:43:49.312Z,2.17
2022-11-01T16:46:20.114Z,2.42
2022-11-01T16:48:54.045Z,1.90
2022-11-01T16:51:26.560Z,1.60
2022-11-01T16:53:55.105Z,1.75
2022-11-01T16:56:42.003Z,2.53
2022-11-01T16:59:25.950Z,3.55
2022-11-01T17:01:58.150Z,9.10
2022-11-01T17:04:27.824Z,8.73
2022-11-01T17:06:58.031Z,11.27
2022-11-01T17:09:26.833Z,13.02
2022-11-01T17:11:54.738Z,15.60
2022-11-01T17:14:22.790Z,17.08
2022-11-01T17:16:52.497Z,18.83
2022-11-01T17:19:30.067Z,20.52
2022-11-01T17:22:01.561Z,22.77
2022-11-01T17:24:31.063Z,22.23
2022-11-01T17:27:02.148Z,24.60
2022-11-01T17:29:30.292Z,25.27
2022-11-01T17:31:58.869Z,27.35
2022-11-01T17:34:28.856Z,29.90
2022-11-01T17:41:59.383Z,31.45
2022-11-01T17:44:26.176Z,33.75
2022-11-01T17:46:52.793Z,35.78
2022-11-01T17:49:22.818Z,35.92
2022-11-01T17:51:54.495Z,37.03
2022-11-01T17:54:21.773Z,38.38
2022-11-01T17:56:49.284Z,36.33
2022-11-01T17:59:16.969Z,40.67
2022-11-01T18:06:46.856Z,41.22
2022-11-01T18:09:19.624Z,44.33
2022-11-01T18:11:52.103Z,45.40
2022-11-01T18:14:24.723Z,45.45
2022-11-01T18:16:58.622Z,47.17
2022-11-01T18:19:41.014Z,45.33
2022-11-01T18:22:21.628Z,47.47
2022-11-01T18:24:53.362Z,48.28
2022-11-01T18:27:25.089Z,47.33
2022-11-01T18:29:53.012Z,49.40
2022-11-01T18:32:27.451Z,47.67
2022-11-01T18:35:00.973Z,50.67
2022-11-01T18:37:37.029Z,50.92
2022-11-01T18:40:12.814Z,53.40
2022-11-01T18:42:40.883Z,56.13
2022-11-01T18:45:18.659Z,53.92
2022-11-01T18:47:50.464Z,56.88
2022-11-01T18:50:24.545Z,59.72
2022-11-01T18:53:03.208Z,59.03
2022-11-01T18:55:33.561Z,55.90
2022-11-01T18:58:12.307Z,57.35
2022-11-01T19:00:40.518Z,56.70
2022-11-01T19:03:13.980Z,60.67
2022-11-01T19:05:42.329Z,51.75
2022-11-01T19:08:23.000Z,54.50
2022-11-01T19:10:51.181Z,52.33
2022-11-01T19:13:26.630Z,55.03
2022-11-01T19:15:57.397Z,53.45
2022-11-01T19:18:25.610Z,52.15
2022-11-01T19:20:54.801Z,57.25
2022-11-01T19:23:32.605Z,54.55
2022-11-01T19:26:00.504Z,54.65
2022-11-01T19:28:33.360Z,55.20
2022-11-01T19:31:07.855Z,56.40
2022-11-01T19:33:38.483Z,57.90
2022-11-01T19:36:16.439Z,57.35
2022-11-01T19:38:45.898Z,54.60
2022-11-01T19:41:16.650Z,53.85
2022-11-01T19:43:44.581Z,55.17
2022-11-01T19:46:15.024Z,53.25
2022-11-01T19:48:43.688Z,55.58
2022-11-01T19:51:16.591Z,56.38
2022-11-01T19:53:46.395Z,54.40
2022-11-01T19:56:17.323Z,59.42
2022-11-01T19:58:46.741Z,54.53
2022-11-01T20:01:37.391Z,56.75
2022-11-01T20:04:14.510Z,58.80
2022-11-01T20:06:48.535Z,56.15
2022-11-01T20:09:22.451Z,62.87
2022-11-01T20:11:50.496Z,54.45
2022-11-01T20:14:18.826Z,58.90
2022-11-01T20:16:47.261Z,57.40
2022-11-01T20:19:17.638Z,56.15
2022-11-01T20:21:46.179Z,58.72
2022-11-01T20:24:15.432Z,56.65
2022-11-01T20:26:44.911Z,56.70
2022-11-01T20:29:12.879Z,56.60
2022-11-01T20:31:40.952Z,55.78
2022-11-01T20:34:09.213Z,56.38
2022-11-01T20:36:38.239Z,60.42
2022-11-01T20:39:08.178Z,58.53
2022-11-01T20:41:38.461Z,59.75
2022-11-01T20:44:07.846Z,59.13
2022-11-01T20:46:35.830Z,56.90
2022-11-01T20:49:04.022Z,68.55
2022-11-01T20:51:31.996Z,56.38
2022-11-01T20:54:00.135Z,57.90
2022-11-01T20:56:28.119Z,56.83
2022-11-01T20:58:56.145Z,55.70
2022-11-01T21:01:25.828Z,57.78
2022-11-01T21:03:54.170Z,57.40
2022-11-01T21:06:23.516Z,62.22
2022-11-01T21:08:51.407Z,63.25
2022-11-01T21:11:25.220Z,65.13
2022-11-01T21:13:53.233Z,65.05
2022-11-01T21:16:29.084Z,66.78
2022-11-01T21:19:02.674Z,70.05
2022-11-01T21:21:36.287Z,72.25
2022-11-01T21:24:26.880Z,70.75
2022-11-01T21:27:09.743Z,72.95
2022-11-01T21:32:24.547Z,75.97
2022-11-01T21:34:51.123Z,76.80
2022-11-01T21:37:20.730Z,75.43
2022-11-01T21:39:47.915Z,77.05
2022-11-01T21:42:29.914Z,78.80
2022-11-01T21:44:56.714Z,76.90
2022-11-01T21:47:25.285Z,77.35
2022-11-01T21:49:52.890Z,78.90
2022-11-01T21:57:22.604Z,82.72
2022-11-01T21:59:49.102Z,83.68
2022-11-01T22:02:15.879Z,82.38
2022-11-01T22:04:43.243Z,83.40
2022-11-01T22:07:10.205Z,81.80
2022-11-01T22:09:37.427Z,82.97
2022-11-01T22:12:04.882Z,84.20
2022-11-01T22:14:32.437Z,84.25
2022-11-01T22:22:03.567Z,83.18
2022-11-01T22:24:30.258Z,82.60
2022-11-01T22:26:56.837Z,86.70
2022-11-01T22:29:24.296Z,86.72
2022-11-01T22:31:50.838Z,86.28
2022-11-01T22:34:17.383Z,90.28
2022-11-01T22:36:43.899Z,91.55
2022-11-01T22:47:14.519Z,98.75
2022-11-01T22:49:45.019Z,95.30
2022-11-01T22:52:18.898Z,95.95
2022-11-01T22:54:47.773Z,97.32
2022-11-01T22:57:18.312Z,94.18
2022-11-01T22:59:47.684Z,90.45
2022-11-01T23:02:26.029Z,88.15
2022-11-01T23:13:03.322Z,81.22
2022-11-01T23:15:31.905Z,82.93
2022-11-01T23:18:05.091Z,75.93
2022-11-01T23:20:31.562Z,78.78
2022-11-01T23:22:59.384Z,75.35
2022-11-01T23:25:25.997Z,76.45
2022-11-01T23:27:54.298Z,76.55
2022-11-01T23:36:42.138Z,74.50
2022-11-01T23:39:11.096Z,72.35
2022-11-01T23:41:40.799Z,69.80
2022-11-01T23:44:14.486Z,69.10
2022-11-01T23:46:41.199Z,67.80
2022-11-01T23:49:15.872Z,65.70
2022-11-01T23:51:43.399Z,65.72
2022-11-01T23:54:13.721Z,66.13
